Strona 1 z 2 1 2 OstatniOstatni
Pokaż wyniki od 1 do 20 z 33
Like Tree6Likes

Wątek: 2013.02.03 ATR 72 Alitalii wypadł z pasa na lotnisku Fiumicino w Rzymie.

  1. #1
    jpl
    jpl jest nieaktywny

    Dołączył
    Jul 2007
    Mieszka w
    Kraków

    Domyślnie 2013.02.03 ATR 72 Alitalii wypadł z pasa na lotnisku Fiumicino w Rzymie.


    Polecamy

    Lądujący na lotnisku Fiumicino ATR 72 linii Carpatair, wykonujący lot dla Alitalii na trasie Piza - Rzym, wypadł z pasa w trakcie lądowania. Są ranni.

    Źródło: http://wiadomosci.wp.pl/kat,110754,title,Wypadek-samolotu-w-Rzymie-maszyna-rumunskich-linii-wyladowala-poza-pasem,wid,15304410,wiadomosc.html .




    Zmieniłem tytuł na Alitalia, bo musimy być uczciwi. Maszyna należy formalnie do Carpatair ale Alitalia ją leasinguje więc nazywajmy sprawy po imieniu. Q
    Ostatnio edytowane przez Quantas ; 03-02-2013 o 19:08

  2. #2

    Dołączył
    Apr 2010

    Domyślnie

    Metary:

    Metars:
    LIRF 022150Z 24025KT 9999 BKN040 11/03 Q0992 NOSIG
    LIRF 022120Z 24024KT 9999 BKN040 11/03 Q0992 NOSIG
    LIRF 022050Z 25025KT 9999 FEW022 BKN040 11/03 Q0992 NOSIG
    LIRF 022020Z 25022G32KT 9999 SCT022 BKN040 11/03 Q0992 NOSIG
    LIRF 021950Z 25023KT 9999 SCT023 SCT040 11/03 Q0992 NOSIG
    LIRF 021920Z 25028G41KT 9999 SCT023 SCT040 11/04 Q0992 WS RWY 16L NOSIG
    LIRF 021850Z 24024KT 9999 FEW023 SCT040 11/04 Q0992 WS RWY 16L NOSIG
    LIRF 021820Z 24030KT 9999 FEW023 SCT040 11/04 Q0991 WS RWY 16L NOSIG
    LIRF 021750Z 24027KT 9999 SCT023 SCT040 11/05 Q0991 NOSIG
    LIRF 021720Z 24025KT 9999 SCT023 SCT040 11/06 Q0991 NOSIG
    LIRF 021650Z 25023KT 9999 SCT023 SCT040 11/06 Q0991 BECMG 24018G30KT
    LIRF 021620Z 25020KT 9999 FEW023 SCT045 12/08 Q0991 BECMG 24018G30KT

    I NOTAM:

    A0480/13 - RUNWAY 07/25 AVBL AS FLW DUE TO WIP: RUNWAY 07: LDG AND TKOF NOT ALLOWED. RUNWAY 25: LDG NOT ALLOWED, TKOF ALLOWED ONLY FROM 'INT TAKE-OFF BB' REF AIP AD 2 LIRF 2-1 AND AD 2 LIRF 1-5 ITEM 13. 28 JAN 05:01 2013 UNTIL 14 FEB 23:00 2013. CREATED: 27 JAN 12:33 2013

  3. #3
    Awatar DCTunlimited

    Dołączył
    Apr 2011
    Mieszka w
    Poznań

    Domyślnie

    To był YR-ATS w malowaniu Alitalii.

    Tutaj kilka zdjęć z wypadku
    Po drugiej stronie marzeń znajdują się wyrzeczenia.

  4. #4

    Dołączył
    Oct 2009
    Mieszka w
    Pruszków@EPWA

    Domyślnie

    Czyli siadali na 16/34 (jeden pies przy takim wietrze) z cross 28G41 i do tego raportowanym WS na 16L (a pewnie praktycznie wszędzie możliwym)?

    Wyjątkowo pieska pogoda.

    Pozdrawiam, Adam

  5. #5

    Dołączył
    May 2012

    Domyślnie

    Na WP to takie bzdury piszą, że aż mnie to przeraża.

    Wysyłane z mojego LG-P880 za pomocą Tapatalk 2

  6. #6

    Dołączył
    Mar 2009

    Domyślnie

    Zapewne każdy z chęcią zobaczyłby film z tego wypadku. Wyłamanie podwozia w ATR zawsze wydawało mi się bardzo trudną rzeczą.

  7. #7

    Dołączył
    May 2010
    Mieszka w
    w domu z ogrodem

    Domyślnie

    Pytanie czy to tylko deformacja poszycia czy naruszona rowniez konstrukcja ?
    Tu widac jak sie pogniotl -> Wypadek turbośmogłowca - Galeria - Strona 5 - Wiadomości - WP.PL
    pozdrawiam nurek *** S-W 8"-Dobson *** T 851, UL 620, UL980, UN 850, UZ 710, UZ 717 TB 1, TR 9

  8. #8
    ModTeam
    Awatar Quantas

    Dołączył
    Jan 2007
    Mieszka w
    Pyrlandia

    Domyślnie

    To był samolot Alitalii. Carpat wziął dwie sztuki ATR "na siebie" i od razu dał je do Alitalii. Oba są w Alitalii od grudnia.



  9. #9

    Dołączył
    Mar 2009

    Domyślnie

    Cytat Zamieszczone przez nurek Zobacz posta
    Pytanie czy to tylko deformacja poszycia czy naruszona rowniez konstrukcja ?
    Raczej w/o.

  10. #10
    Zbanowany
    Dołączył
    May 2010
    Mieszka w
    Niedaleko Kielc

    Domyślnie


    Photo: sslaziocalciomercato

  11. #11

    Dołączył
    May 2010
    Mieszka w
    w domu z ogrodem

    Domyślnie

    Wg niepotwierdzonych informacji wyjechali ok. 300m za pas, 16L ma 3900, wiec przyziemili w polowie czy dostali w ogon i ich ponioslo? Nie dzialaly hamulce ? ani na kolacha ani aerodynamiczne ?
    pozdrawiam nurek *** S-W 8"-Dobson *** T 851, UL 620, UL980, UN 850, UZ 710, UZ 717 TB 1, TR 9

  12. #12

    Dołączył
    Feb 2007
    Mieszka w
    QSA

    Domyślnie

    Cytat Zamieszczone przez nurek Zobacz posta
    Wg niepotwierdzonych informacji wyjechali ok. 300m za pas, 16L ma 3900, wiec przyziemili w polowie czy dostali w ogon i ich ponioslo? Nie dzialaly hamulce ? ani na kolacha ani aerodynamiczne ?
    Alitalia (operated by Carpatair ) ATR-72 suffers landing accident at Rome-Fiumicino - The Italian corner - AirSpace blogs - Aviation & Aerospace Blogs - FlightGlobal

    A Carpatair ATR-72-500 on behalf of Alitalia, registration YR-ATS performing flight V3-1670/AZ-1670 from Pisa to Rome Fiumicino (Italy) with 46 passengers and 4 crew, landed on Fiumicino's runway 16L (runway 3) at about 20:32L (19:32Z) but veered right off the runway and came to a stop on soft ground with the right main and nose gear collapsed. The aircraft was evacuated. A passenger received a serious injury (broken femur), the first officer received a serious spinal injury, 4 passengers received minor injuries, all 6 were taken to hospitals. The aircraft received substantial damage to right main and nose gear, nose, right hand propeller and engine.
    Wynika z tego, że wypadł (zjechał) z pasa ale w prawo od jego osi, z serwisów które czytałem nigdzie nie pisze że wypadł na końcu pasa.

  13. #13
    Awatar thewho

    Dołączył
    Feb 2007
    Mieszka w
    WAW

    Domyślnie

    Cytat Zamieszczone przez Inter Zobacz posta
    To akurat jest bardziej mozliwe. ATR przy bocznym wietrze potrafi byc bardzo wredny. Wyladowac nim to jedno a drugie to utrzymac w osi na ziemi. Ze wzgledu na waski rozstaw kol i brak polaczenia pedalow steru kierunku z przednim kolem jest to tym bardziej trudne. Do tego jak sie go "rozbuja" i nie trzyma lotki pod wiatr to gotowy przepis na klopoty

  14. #14

    Dołączył
    Feb 2013

    Domyślnie

    Szkoda samolotu. Po zdjęciach widać że nie wróci do latania.

  15. #15

    Dołączył
    May 2010

    Domyślnie

    Szkoda rannych i przerażonych ludzi. Na pewno nie samolotu
    Patryk13, Canonier and jarekch like this.

  16. #16

    Dołączył
    Jun 2009
    Mieszka w
    warszawa

    Domyślnie

    http://roma.corriere.it/media/foto/2...2--620x420.JPG

    Wiedziałem że makaroni wpadną na genialny pomysł
    kacper232 and rzepa like this.

  17. #17

    Dołączył
    Jul 2007
    Mieszka w
    Polska

    Domyślnie

    Nic w tym niezwyklego.

  18. #18

    Dołączył
    May 2010
    Mieszka w
    w domu z ogrodem

    Domyślnie

    Przed paroma minutami na RTL-u podali, ze w sumie rannych zostalo 16 osob w tym dwoje ciezko.
    pozdrawiam nurek *** S-W 8"-Dobson *** T 851, UL 620, UL980, UN 850, UZ 710, UZ 717 TB 1, TR 9

  19. #19

    Dołączył
    Feb 2009

    Domyślnie

    Cytat Zamieszczone przez Behemot Zobacz posta
    Nic w tym niezwyklego.
    Może zadam głupie pytanie : w tv pokazują bialego ATR-a. Chyba go nie umyli?

  20. #20
    Awatar Dash7

    Dołączył
    Oct 2009
    Mieszka w
    WAW

    Domyślnie


    Polecamy

    Zamalowali logo i oznaczenia linii (Alitalia), żeby nie było "złego PR". Powszechna praktyka. Podobnie było z Alitalią która "wypadła" z pasa w WAW (nie pamiętam na DC-9 lub MD coś), też stała z zamalowanym logo.
    Pozdrawiam

Strona 1 z 2 1 2 OstatniOstatni

Uprawnienia umieszczania postów

  • Nie możesz zakładać nowych tematów
  • Nie możesz pisać wiadomości
  • Nie możesz dodawać załączników
  • Nie możesz edytować swoich postów
  •